AUG weather

Augusta State Airport
Augusta, Maine, United States

Public forecast

Using degrees Fahrenheit for public forecast. Weather courtesy of forecast.io.

Current aviation weather report (METAR) for Augusta State Airport

Retrieved 2019/10/18 00:24 UTC (8 minutes ago):

KAUG 180024Z AUTO 31006KT 10SM FEW027 OVC044 08/08 A2910 RMK AO2 T00830078

Aviation forecast (TAF) for Augusta State Airport

Retrieved 2019-10-18 00:22 UTC (10 minutes ago):

TAF KAUG 172320Z 1800/1824 01007KT P6SM VCSH BKN040 FM180100 34007KT P6SM BKN060 FM180400 31008KT P6SM BKN040 FM181200 30009KT P6SM SCT040 FM181300 31009KT P6SM BKN040